Time;durP1;ratioP1;P1;durP2;ratioP2;P2;SDS_P1;SDS_P2;PMS_P1;PMS_P2;Temp;Humidity;BMP_temperature;BMP_pressure;BME280_temperature;BME280_humidity;BME280_pressure;Samples;Min_cycle;Max_cycle;Signal;HPM_P1;HPM_P2
2022/02/14 00:00:01;;;;;;;80.22;52.22;;;;;;;4.29;64.77;101196.91;5048892;28;20056;-20
2022/02/14 00:02:26;;;;;;;19.15;12.25;;;;;;;4.22;64.42;101185.28;5030669;28;20503;-21
2022/02/14 00:04:52;;;;;;;12.40;6.28;;;;;;;3.74;66.63;101187.25;5048619;28;20025;-21
2022/02/14 00:07:17;;;;;;;13.70;7.30;;;;;;;3.45;67.54;101187.34;5049071;28;20465;-21
2022/02/14 00:09:43;;;;;;;12.60;6.93;;;;;;;3.25;68.29;101185.75;5048910;28;20106;-21
2022/02/14 00:12:09;;;;;;;13.45;5.93;;;;;;;3.76;66.42;101176.53;5048697;28;20028;-21
2022/02/14 00:14:34;;;;;;;15.38;8.23;;;;;;;4.25;64.42;101184.16;5030611;28;20037;-20
2022/02/14 00:16:59;;;;;;;14.27;7.75;;;;;;;4.47;63.45;101193.44;5048919;28;20028;-21
2022/02/14 00:19:25;;;;;;;13.77;6.80;;;;;;;4.50;63.39;101187.88;5048516;28;20540;-21
2022/02/14 00:21:50;;;;;;;14.52;7.53;;;;;;;3.91;65.26;101188.25;5048633;28;20040;-21
2022/02/14 00:24:16;;;;;;;14.13;6.38;;;;;;;3.51;66.27;101181.50;5048664;28;20040;-21
2022/02/14 00:26:42;;;;;;;13.02;5.95;;;;;;;3.47;67.29;101177.47;5030464;28;20032;-20
2022/02/14 00:29:07;;;;;;;13.45;5.95;;;;;;;3.38;67.69;101165.19;5048289;28;20072;-20
2022/02/14 00:31:33;;;;;;;9.20;5.38;;;;;;;3.34;67.44;101158.53;5048353;28;20028;-22
2022/02/14 00:33:58;;;;;;;10.18;6.03;;;;;;;3.90;65.30;101167.28;5048107;28;20064;-21
2022/02/14 00:36:24;;;;;;;11.52;6.47;;;;;;;3.97;64.82;101174.47;5030541;28;20408;-22
2022/02/14 00:38:50;;;;;;;10.48;5.88;;;;;;;3.75;66.03;101166.97;5030296;28;20032;-21
2022/02/14 00:41:15;;;;;;;10.15;6.20;;;;;;;3.89;65.07;101163.81;5047433;28;20037;-21
2022/02/14 00:43:41;;;;;;;11.32;6.50;;;;;;;3.95;64.56;101171.16;5047913;28;20039;-21
2022/02/14 00:46:06;;;;;;;14.95;6.53;;;;;;;4.01;64.16;101167.91;5048220;28;20021;-21
2022/02/14 00:48:32;;;;;;;13.30;6.93;;;;;;;4.31;62.90;101151.84;5047635;28;20505;-21
2022/02/14 00:50:57;;;;;;;13.13;6.72;;;;;;;4.45;62.35;101150.50;5030033;28;20036;-21
2022/02/14 00:53:23;;;;;;;15.63;7.10;;;;;;;4.47;62.50;101151.19;5048328;28;20467;-21
2022/02/14 00:55:49;;;;;;;11.77;6.63;;;;;;;4.40;61.90;101138.56;5030031;28;20024;-20
2022/02/14 00:58:15;;;;;;;13.98;6.97;;;;;;;4.60;61.09;101144.53;5029883;28;20039;-21
2022/02/14 01:00:41;;;;;;;12.50;7.22;;;;;;;3.98;62.86;101136.56;5047662;28;20052;-20
2022/02/14 01:03:06;;;;;;;14.43;6.65;;;;;;;3.85;63.88;101143.97;5047557;28;20036;-20
2022/02/14 01:05:32;;;;;;;14.82;6.22;;;;;;;3.89;63.46;101140.06;5047974;28;20025;-20
2022/02/14 01:07:57;;;;;;;15.20;6.97;;;;;;;4.03;63.35;101144.84;5030047;28;20757;-20
2022/02/14 01:10:22;;;;;;;13.48;6.85;;;;;;;3.77;63.00;101138.63;5029957;28;20047;-21
2022/02/14 01:12:48;;;;;;;10.77;6.07;;;;;;;3.59;63.64;101139.41;5047610;28;20040;-21
2022/02/14 01:15:13;;;;;;;13.00;6.30;;;;;;;3.39;64.84;101135.19;5047657;28;20028;-21
2022/02/14 01:17:39;;;;;;;24.05;7.43;;;;;;;3.37;65.75;101129.22;5047501;28;20032;-21
2022/02/14 01:20:07;;;;;;;17.05;8.05;;;;;;;3.26;64.46;101105.72;5029921;28;20500;-21
2022/02/14 01:22:34;;;;;;;17.17;9.70;;;;;;;3.54;64.43;101115.28;5047445;28;20041;-21
2022/02/14 01:24:59;;;;;;;21.90;9.05;;;;;;;3.57;63.96;101117.59;5030051;28;20037;-21
2022/02/14 01:27:25;;;;;;;30.25;15.32;;;;;;;3.04;65.22;101109.53;5047440;28;20035;-21
2022/02/14 01:29:51;;;;;;;23.30;12.38;;;;;;;3.40;64.73;101121.88;5047571;28;20033;-20
2022/02/14 01:32:23;;;;;;;24.77;12.35;;;;;;;3.67;63.23;101122.84;5047376;28;20036;-20
2022/02/14 01:34:52;;;;;;;25.30;11.55;;;;;;;3.61;63.33;101118.97;5047396;28;20029;-21
2022/02/14 01:37:17;;;;;;;25.60;13.38;;;;;;;3.66;62.46;101109.78;5047625;28;20025;-21
2022/02/14 01:39:43;;;;;;;25.48;12.90;;;;;;;3.67;62.67;101090.34;5047413;28;20032;-20
2022/02/14 01:42:09;;;;;;;22.90;11.57;;;;;;;3.69;61.99;101104.22;5029767;28;20130;-21
2022/02/14 01:44:42;;;;;;;24.77;11.88;;;;;;;3.53;62.92;101092.50;5046990;28;20025;-22
2022/02/14 01:47:12;;;;;;;21.60;11.73;;;;;;;3.48;62.87;101101.88;5047736;28;20036;-21
2022/02/14 01:49:38;;;;;;;21.40;10.38;;;;;;;3.46;62.96;101095.91;5047729;28;20095;-21
2022/02/14 01:52:04;;;;;;;18.05;9.88;;;;;;;3.42;63.51;101090.91;5048367;28;20032;-20
2022/02/14 01:54:30;;;;;;;18.75;10.20;;;;;;;3.15;64.51;101091.75;5033244;28;20032;-21
2022/02/14 01:56:55;;;;;;;17.67;9.60;;;;;;;3.10;64.69;101091.31;5033613;28;20064;-20
2022/02/14 01:59:21;;;;;;;14.95;9.13;;;;;;;3.30;63.87;101091.25;5051103;28;20496;-21
2022/02/14 02:01:46;;;;;;;18.50;10.82;;;;;;;3.29;63.95;101090.44;5051413;28;20059;-21
2022/02/14 02:04:13;;;;;;;15.63;9.30;;;;;;;3.42;63.11;101090.09;5051463;28;20028;-22
2022/02/14 02:06:39;;;;;;;16.52;9.27;;;;;;;3.35;63.64;101094.28;5050966;28;20032;-21
2022/02/14 02:09:05;;;;;;;19.77;9.85;;;;;;;3.01;63.79;101068.50;5016877;28;20041;-20
2022/02/14 02:14:20;;;;;;;18.10;9.95;;;;;;;3.41;62.98;101088.41;5051092;28;20841;-21
2022/02/14 02:16:45;;;;;;;18.20;9.02;;;;;;;3.55;62.70;101087.09;5050790;28;20033;-20
2022/02/14 02:19:10;;;;;;;16.52;8.82;;;;;;;3.16;63.89;101088.09;5050825;28;20037;-21
2022/02/14 02:21:36;;;;;;;16.27;9.00;;;;;;;3.35;62.43;101076.66;5050708;28;20032;-21
2022/02/14 02:24:01;;;;;;;15.70;8.95;;;;;;;3.56;62.33;101089.59;5050848;28;20033;-20
2022/02/14 02:26:30;;;;;;;19.48;9.30;;;;;;;3.31;62.59;101069.19;5015756;28;20035;-20
2022/02/14 02:28:56;;;;;;;17.88;8.82;;;;;;;2.51;65.16;101087.19;5032856;28;20119;-21
2022/02/14 02:31:21;;;;;;;15.43;8.65;;;;;;;2.42;64.47;101078.34;5050592;28;20520;-20
2022/02/14 02:33:47;;;;;;;24.30;10.18;;;;;;;1.86;66.80;101087.78;5032855;28;20467;-21
2022/02/14 02:36:12;;;;;;;21.55;11.00;;;;;;;1.84;66.51;101068.69;5050426;28;20040;-21
2022/02/14 02:38:37;;;;;;;24.83;11.30;;;;;;;2.01;65.45;101078.50;5050137;28;20039;-20
2022/02/14 02:41:03;;;;;;;35.55;18.48;;;;;;;2.36;64.59;101081.53;5050682;28;20039;-21
2022/02/14 02:43:28;;;;;;;36.28;16.25;;;;;;;2.25;64.12;101061.47;5050562;28;20492;-21
2022/02/14 02:45:55;;;;;;;25.80;12.50;;;;;;;1.77;65.29;101057.84;5050512;28;20111;-21
2022/02/14 02:48:21;;;;;;;27.20;12.90;;;;;;;1.67;66.45;101072.78;5050315;28;20045;-20
2022/02/14 02:51:02;;;;;;;26.27;11.80;;;;;;;1.14;66.32;101047.63;5050173;28;20488;-21
2022/02/14 02:53:31;;;;;;;26.10;11.05;;;;;;;0.23;69.32;101041.38;5050024;28;20443;-21
2022/02/14 02:55:57;;;;;;;28.77;15.30;;;;;;;0.21;70.74;101071.31;5032341;28;20029;-21
2022/02/14 02:58:22;;;;;;;22.05;12.23;;;;;;;0.46;69.40;101080.59;5032001;28;20040;-21
2022/02/14 03:00:48;;;;;;;23.75;12.15;;;;;;;-0.12;70.31;101071.31;5049958;28;20052;-22
2022/02/14 03:03:13;;;;;;;28.20;12.90;;;;;;;0.03;70.76;101052.69;5049384;28;20114;-21
2022/02/14 03:05:39;;;;;;;25.48;12.48;;;;;;;0.89;68.20;101071.72;5049485;28;20492;-20
2022/02/14 03:08:06;;;;;;;21.30;12.32;;;;;;;0.63;70.73;101066.88;5049596;28;20053;-21
2022/02/14 03:10:31;;;;;;;19.40;9.00;;;;;;;1.09;69.46;101068.22;5049597;28;20051;-21
2022/02/14 03:12:57;;;;;;;18.45;10.43;;;;;;;1.34;68.17;101066.91;5049867;28;20029;-21
2022/02/14 03:15:22;;;;;;;20.67;9.75;;;;;;;1.42;69.04;101073.31;5049738;28;20112;-21
2022/02/14 03:17:48;;;;;;;20.00;9.98;;;;;;;1.47;68.87;101071.94;5049966;28;20033;-21
2022/02/14 03:20:14;;;;;;;22.02;10.05;;;;;;;1.74;67.41;101067.84;5049680;28;20408;-20
2022/02/14 03:22:39;;;;;;;21.73;10.93;;;;;;;1.74;67.85;101062.56;5031518;28;20063;-21
2022/02/14 03:25:05;;;;;;;23.23;10.40;;;;;;;1.30;68.32;101038.41;5049780;28;20473;-21
2022/02/14 03:27:31;;;;;;;19.00;9.90;;;;;;;1.70;67.80;101061.19;5049633;28;20029;-21
2022/02/14 03:29:56;;;;;;;21.63;10.98;;;;;;;1.30;67.83;101054.19;5049915;28;20037;-21
2022/02/14 03:32:21;;;;;;;20.23;9.45;;;;;;;0.61;70.09;101063.56;5049351;28;20033;-21
2022/02/14 03:34:47;;;;;;;18.50;9.82;;;;;;;0.27;70.97;101055.91;5031219;28;20029;-21
2022/02/14 03:37:12;;;;;;;18.92;9.57;;;;;;;0.76;70.14;101056.19;5049081;28;20033;-20
2022/02/14 03:39:38;;;;;;;25.42;12.57;;;;;;;1.34;68.63;101060.81;5049535;28;20036;-22
2022/02/14 03:42:03;;;;;;;28.25;14.88;;;;;;;1.42;67.58;101061.00;5031363;28;20041;-21
2022/02/14 03:44:29;;;;;;;32.33;15.45;;;;;;;1.50;67.51;101050.63;5049034;28;20531;-21
2022/02/14 03:46:54;;;;;;;36.53;15.73;;;;;;;1.81;66.29;101063.69;5031298;28;20033;-21
2022/02/14 03:49:20;;;;;;;24.77;12.75;;;;;;;1.89;66.63;101057.75;5049512;28;20029;-20
2022/02/14 03:51:45;;;;;;;29.15;17.05;;;;;;;1.12;68.56;101064.47;5031145;28;20040;-21
2022/02/14 03:54:11;;;;;;;25.35;14.82;;;;;;;1.36;68.66;101058.91;5049168;28;20025;-20
2022/02/14 03:56:36;;;;;;;21.70;9.57;;;;;;;1.20;68.34;101049.72;5048954;28;20033;-20
2022/02/14 03:59:02;;;;;;;22.25;11.75;;;;;;;1.12;68.33;101041.66;5031024;28;20439;-22
2022/02/14 04:01:27;;;;;;;28.35;14.50;;;;;;;1.82;66.19;101065.34;5048851;28;20049;-21
2022/02/14 04:03:53;;;;;;;27.05;15.07;;;;;;;0.94;68.57;101067.75;5048828;28;20037;-21
2022/02/14 04:06:18;;;;;;;34.05;18.00;;;;;;;0.71;69.06;101064.44;5048706;28;20029;-21
2022/02/14 04:08:44;;;;;;;26.48;15.38;;;;;;;1.35;67.33;101067.75;5048660;28;20036;-20
2022/02/14 04:11:09;;;;;;;28.23;15.45;;;;;;;1.45;65.39;101055.47;5030895;28;20033;-20
2022/02/14 04:13:35;;;;;;;26.33;14.25;;;;;;;1.28;66.66;101071.88;5014501;28;20029;-21
2022/02/14 04:16:00;;;;;;;28.63;15.90;;;;;;;1.20;66.80;101049.72;5048344;28;20033;-21
2022/02/14 04:18:26;;;;;;;30.60;16.45;;;;;;;0.80;68.26;101065.47;5048242;28;20032;-21
2022/02/14 04:20:51;;;;;;;24.58;14.43;;;;;;;0.35;69.59;101058.72;5030276;28;20025;-21
2022/02/14 04:23:17;;;;;;;24.42;12.10;;;;;;;0.02;70.88;101064.09;5048597;28;20788;-21
2022/02/14 04:25:42;;;;;;;40.70;24.20;;;;;;;-0.11;71.24;101067.72;5048472;28;20064;-21
2022/02/14 04:28:08;;;;;;;215.25;122.03;;;;;;;-0.20;71.12;101047.53;5048436;28;20405;-21
2022/02/14 04:30:33;;;;;;;42.28;26.00;;;;;;;-0.20;71.69;101060.63;5030048;28;20037;-21
2022/02/14 04:33:00;;;;;;;88.82;39.92;;;;;;;0.44;69.88;101062.34;5048367;28;20555;-22
2022/02/14 04:35:26;;;;;;;46.70;23.70;;;;;;;0.40;69.25;101056.53;5048108;28;20029;-21
2022/02/14 04:37:54;;;;;;;53.92;25.38;;;;;;;0.77;67.75;101048.16;5048284;28;20128;-20
2022/02/14 04:40:20;;;;;;;39.60;21.50;;;;;;;1.10;66.45;101056.72;5048294;28;20039;-21
2022/02/14 04:42:45;;;;;;;45.78;17.08;;;;;;;0.86;66.71;101064.09;5047995;28;20029;-21
2022/02/14 04:45:11;;;;;;;36.95;16.85;;;;;;;0.57;66.93;101056.91;5048387;28;20035;-21
2022/02/14 04:47:36;;;;;;;33.90;17.88;;;;;;;0.33;67.94;101038.81;5048296;28;20037;-22
2022/02/14 04:50:02;;;;;;;40.60;20.13;;;;;;;-0.10;69.06;101045.81;5047924;28;20033;-22
2022/02/14 04:52:27;;;;;;;70.80;33.35;;;;;;;0.28;67.52;101036.56;5048088;28;20036;-21
2022/02/14 04:54:53;;;;;;;74.50;30.65;;;;;;;0.18;68.54;101057.50;5047943;28;20454;-21
2022/02/14 04:57:18;;;;;;;68.30;30.08;;;;;;;-0.12;68.83;101041.63;5047907;28;20462;-21
2022/02/14 04:59:44;;;;;;;49.90;24.75;;;;;;;0.76;66.00;101064.91;5047872;28;20060;-21
2022/02/14 05:02:09;;;;;;;55.15;28.55;;;;;;;0.83;66.78;101059.13;5047828;28;20553;-21
2022/02/14 05:04:35;;;;;;;39.40;19.55;;;;;;;0.26;68.34;101063.88;5047290;28;20029;-20
2022/02/14 05:07:00;;;;;;;40.75;18.83;;;;;;;-0.19;70.81;101064.06;5047743;28;20039;-21
2022/02/14 05:09:26;;;;;;;32.25;17.35;;;;;;;-0.16;69.92;101027.97;5047707;28;20032;-22
2022/02/14 05:11:53;;;;;;;35.58;18.02;;;;;;;0.31;69.21;101065.19;5048139;28;20036;-21
2022/02/14 05:14:19;;;;;;;35.33;18.02;;;;;;;-0.43;70.64;101031.88;5047776;28;20147;-21
2022/02/14 05:16:44;;;;;;;32.38;18.67;;;;;;;-0.43;72.28;101068.56;5047477;28;20048;-21
2022/02/14 05:19:10;;;;;;;36.90;18.70;;;;;;;0.12;70.41;101063.25;5047553;28;20033;-21
2022/02/14 05:21:35;;;;;;;44.30;18.45;;;;;;;0.23;70.53;101074.66;5047786;28;20037;-21
2022/02/14 05:24:01;;;;;;;42.45;22.60;;;;;;;0.55;69.86;101080.66;5047770;28;20040;-22
2022/02/14 05:26:26;;;;;;;40.03;22.00;;;;;;;0.33;70.14;101078.19;5047120;28;20091;-21
2022/02/14 05:28:55;;;;;;;57.42;26.58;;;;;;;-0.02;72.57;101081.88;5047775;28;20094;-20
2022/02/14 05:31:22;;;;;;;46.00;23.13;;;;;;;-0.11;72.32;101053.78;5047535;28;20123;-21
2022/02/14 05:33:47;;;;;;;77.03;42.42;;;;;;;0.23;71.82;101075.47;5047311;28;20064;-22
2022/02/14 05:36:12;;;;;;;150.10;63.97;;;;;;;0.02;72.39;101054.47;5047727;28;20501;-21
2022/02/14 05:38:38;;;;;;;98.28;46.92;;;;;;;0.22;72.15;101089.53;5047379;28;20078;-21
2022/02/14 05:41:03;;;;;;;89.03;39.58;;;;;;;0.33;71.50;101091.28;5047610;28;20114;-21
2022/02/14 05:43:29;;;;;;;188.70;78.22;;;;;;;0.68;69.54;101083.09;5047584;28;20155;-20
2022/02/14 05:45:55;;;;;;;87.18;43.08;;;;;;;0.34;71.02;101091.16;5047442;28;20090;-21
2022/02/14 05:48:26;;;;;;;57.83;30.90;;;;;;;-0.03;72.90;101088.09;5047456;28;20416;-21
2022/02/14 05:50:52;;;;;;;45.60;26.42;;;;;;;0.01;71.68;101065.09;5047598;28;20561;-21
2022/02/14 05:53:18;;;;;;;36.17;20.77;;;;;;;0.07;72.09;101083.75;5047507;28;20041;-20
2022/02/14 05:55:43;;;;;;;42.40;24.80;;;;;;;0.45;70.59;101084.16;5047254;28;20079;-20
2022/02/14 05:58:08;;;;;;;43.25;24.48;;;;;;;0.81;68.49;101088.13;5047309;28;20039;-21
2022/02/14 06:00:34;;;;;;;46.30;25.30;;;;;;;0.28;69.76;101091.66;5046978;28;20087;-21
2022/02/14 06:02:59;;;;;;;41.47;24.17;;;;;;;0.34;70.67;101085.91;5047407;28;20028;-21
2022/02/14 06:05:25;;;;;;;35.05;18.85;;;;;;;0.71;68.91;101095.13;5047708;28;20029;-21
2022/02/14 06:07:50;;;;;;;29.85;19.48;;;;;;;0.34;69.25;101093.75;5029427;28;20507;-21
2022/02/14 06:10:16;;;;;;;29.02;18.92;;;;;;;0.87;67.87;101089.41;5047272;28;20089;-20
2022/02/14 06:12:41;;;;;;;25.30;14.25;;;;;;;0.67;69.10;101099.78;5046982;28;20040;-21
2022/02/14 06:15:07;;;;;;;28.50;15.98;;;;;;;0.25;69.61;101076.19;5047066;28;20036;-21
2022/02/14 06:17:33;;;;;;;26.55;13.32;;;;;;;-0.05;70.57;101067.22;5046537;28;20040;-21
2022/02/14 06:19:59;;;;;;;24.00;14.45;;;;;;;-0.32;72.90;101085.22;5047160;28;20033;-22
2022/02/14 06:22:25;;;;;;;25.25;13.82;;;;;;;-0.46;73.38;101095.00;5028778;28;20036;-21
2022/02/14 06:24:51;;;;;;;27.35;15.00;;;;;;;-0.58;73.90;101074.19;5047025;28;20025;-21
2022/02/14 06:27:16;;;;;;;27.15;14.60;;;;;;;-0.62;74.26;101073.59;5046783;28;20057;-20
2022/02/14 06:29:41;;;;;;;33.38;15.55;;;;;;;-0.25;73.63;101087.19;5028975;28;20036;-21
2022/02/14 06:32:07;;;;;;;30.77;17.05;;;;;;;-0.22;74.49;101086.13;5046698;28;20091;-21
2022/02/14 06:34:32;;;;;;;41.22;20.05;;;;;;;-0.12;73.07;101060.84;5046650;28;20036;-21
2022/02/14 06:36:58;;;;;;;49.28;25.08;;;;;;;0.06;73.00;101073.38;5046896;28;20413;-21
2022/02/14 06:39:23;;;;;;;49.78;23.77;;;;;;;0.33;71.39;101091.28;5047858;28;20029;-20
2022/02/14 06:41:49;;;;;;;44.78;24.90;;;;;;;0.58;71.03;101079.56;5050309;28;20039;-21
2022/02/14 06:44:14;;;;;;;47.30;26.48;;;;;;;0.77;71.17;101092.78;5050077;28;20554;-21
2022/02/14 06:46:40;;;;;;;45.42;26.40;;;;;;;1.38;69.16;101088.50;5049990;28;20037;-20
2022/02/14 06:49:06;;;;;;;54.45;29.63;;;;;;;1.63;68.45;101088.97;5050100;28;20060;-21
2022/02/14 06:51:35;;;;;;;70.13;37.13;;;;;;;2.02;67.03;101092.47;5050233;28;20079;-21
2022/02/14 06:54:01;;;;;;;64.20;32.50;;;;;;;2.10;66.87;101089.16;5050230;28;20029;-21
2022/02/14 06:56:27;;;;;;;53.35;34.28;;;;;;;2.07;67.74;101090.28;5032017;28;20036;-20
2022/02/14 06:58:52;;;;;;;59.15;35.83;;;;;;;1.84;68.70;101094.13;5050035;28;20033;-21
2022/02/14 07:01:18;;;;;;;49.42;30.52;;;;;;;2.14;67.76;101094.00;5049714;28;20091;-21
2022/02/14 07:03:44;;;;;;;56.15;31.33;;;;;;;2.05;68.35;101075.59;5050149;28;20056;-21
2022/02/14 07:06:09;;;;;;;50.25;30.05;;;;;;;2.11;67.73;101075.06;5032046;28;20029;-21
2022/02/14 07:08:35;;;;;;;50.75;30.60;;;;;;;2.13;67.74;101083.63;5049967;28;20068;-21
2022/02/14 07:11:00;;;;;;;56.17;28.60;;;;;;;2.28;68.77;101070.88;5049959;28;20086;-22
2022/02/14 07:13:26;;;;;;;51.65;29.08;;;;;;;2.39;68.53;101095.25;5049877;28;20041;-22
2022/02/14 07:15:52;;;;;;;53.75;33.45;;;;;;;2.42;67.65;101089.69;5049444;28;20036;-21
2022/02/14 07:18:17;;;;;;;57.28;33.50;;;;;;;2.59;68.55;101084.69;5049772;28;20033;-21
2022/02/14 07:20:43;;;;;;;57.42;33.65;;;;;;;2.67;67.26;101090.06;5049298;28;20484;-21
2022/02/14 07:23:08;;;;;;;54.85;33.58;;;;;;;3.34;65.46;101087.34;5049568;28;20044;-20
2022/02/14 07:25:34;;;;;;;58.05;33.85;;;;;;;3.16;66.11;101067.03;5049529;28;20029;-21
2022/02/14 07:27:59;;;;;;;52.20;30.73;;;;;;;3.35;66.07;101087.22;5049487;28;20060;-20
2022/02/14 07:30:25;;;;;;;51.42;30.80;;;;;;;3.66;66.07;101083.41;5031170;28;20068;-21
2022/02/14 07:32:50;;;;;;;56.08;33.90;;;;;;;3.69;65.45;101076.03;5049619;28;20468;-20
2022/02/14 07:35:16;;;;;;;48.55;29.40;;;;;;;3.81;64.19;101068.75;5049608;28;20400;-20
2022/02/14 07:37:43;;;;;;;58.80;30.83;;;;;;;4.47;63.18;101077.22;5049460;28;20671;-20
2022/02/14 07:40:09;;;;;;;57.33;34.05;;;;;;;4.29;63.44;101078.09;5049486;28;20036;-21
2022/02/14 07:42:34;;;;;;;50.65;29.58;;;;;;;4.61;62.78;101076.66;5048893;28;20071;-20
2022/02/14 07:45:00;;;;;;;45.95;26.98;;;;;;;4.36;62.99;101055.34;5048622;28;20021;-21
2022/02/14 07:47:26;;;;;;;45.92;25.38;;;;;;;4.42;62.40;101067.94;5049283;28;20111;-20
2022/02/14 07:49:52;;;;;;;46.38;26.23;;;;;;;4.50;62.77;101061.06;5048716;28;20112;-20
2022/02/14 07:52:17;;;;;;;66.35;38.53;;;;;;;5.10;61.57;101069.00;5049167;28;20033;-22
2022/02/14 07:54:43;;;;;;;48.03;26.00;;;;;;;5.09;61.96;101070.00;5048799;28;20427;-20
2022/02/14 07:57:08;;;;;;;39.55;22.02;;;;;;;4.98;62.91;101080.84;5048749;28;20029;-20
2022/02/14 07:59:34;;;;;;;41.47;23.08;;;;;;;5.18;62.51;101060.28;5030662;28;20053;-21
2022/02/14 08:01:59;;;;;;;43.35;24.60;;;;;;;5.38;61.66;101074.09;5048688;28;20470;-20
2022/02/14 08:04:25;;;;;;;39.53;24.85;;;;;;;5.52;60.42;101062.06;5048684;28;20110;-21
2022/02/14 08:06:50;;;;;;;33.45;19.08;;;;;;;5.53;59.30;101069.81;5048703;28;20036;-21
2022/02/14 08:09:17;;;;;;;33.05;20.85;;;;;;;5.39;60.09;101062.50;5031023;28;20037;-20
2022/02/14 08:11:43;;;;;;;35.83;20.48;;;;;;;5.67;59.71;101065.72;5048633;28;20147;-20
2022/02/14 08:14:08;;;;;;;45.33;24.75;;;;;;;5.69;60.55;101060.28;5048703;28;20416;-21
2022/02/14 08:16:35;;;;;;;152.32;68.03;;;;;;;5.82;59.74;101069.41;5048072;28;20469;-21
2022/02/14 08:19:01;;;;;;;61.53;34.63;;;;;;;5.90;59.29;101043.94;5048277;28;20025;-21
2022/02/14 08:21:26;;;;;;;32.40;19.17;;;;;;;5.88;58.92;101052.03;5048439;28;20025;-20
2022/02/14 08:23:52;;;;;;;36.28;21.13;;;;;;;6.13;59.12;101060.88;5048304;28;20472;-21
2022/02/14 08:26:18;;;;;;;38.38;20.23;;;;;;;6.44;58.71;101063.66;5048306;28;20389;-20
2022/02/14 08:28:43;;;;;;;57.33;40.20;;;;;;;6.46;57.69;101060.00;5047731;28;20036;-21
2022/02/14 08:31:09;;;;;;;41.63;26.55;;;;;;;6.43;58.03;101048.75;5048399;28;20033;-21
2022/02/14 08:33:34;;;;;;;31.02;18.92;;;;;;;6.60;57.29;101040.78;5046565;28;20029;-21
2022/02/14 08:36:00;;;;;;;33.38;18.40;;;;;;;6.86;56.56;101060.94;5029963;28;20028;-22
2022/02/14 08:38:25;;;;;;;32.78;18.55;;;;;;;6.36;60.19;101058.38;5047400;28;20531;-21
2022/02/14 08:40:51;;;;;;;23.15;12.80;;;;;;;5.78;60.62;101051.34;5047959;28;20032;-21
2022/02/14 08:43:16;;;;;;;26.88;13.25;;;;;;;6.24;61.25;101051.75;5047496;28;20029;-23
2022/02/14 08:45:42;;;;;;;25.58;14.48;;;;;;;6.51;59.49;101047.91;5047838;28;20036;-21
2022/02/14 08:48:07;;;;;;;34.72;17.55;;;;;;;6.22;60.17;101054.56;5047949;28;20037;-21
2022/02/14 08:50:33;;;;;;;28.52;16.92;;;;;;;6.40;60.82;101061.53;5047475;28;20036;-21
2022/02/14 08:53:00;;;;;;;26.13;15.40;;;;;;;6.55;58.71;101065.13;5047558;28;20044;-21
2022/02/14 08:55:27;;;;;;;32.50;20.15;;;;;;;6.61;59.45;101050.38;5047400;28;20480;-21
2022/02/14 08:57:53;;;;;;;31.65;16.27;;;;;;;6.63;60.31;101056.34;5029462;28;20045;-21
2022/02/14 09:00:18;;;;;;;25.70;11.98;;;;;;;6.28;61.04;101037.19;5047136;28;20064;-20
2022/02/14 09:02:44;;;;;;;24.92;13.85;;;;;;;6.65;59.88;101054.34;5046632;28;20032;-22
2022/02/14 09:05:09;;;;;;;25.63;13.23;;;;;;;6.82;58.31;101044.53;5047651;28;20033;-22
2022/02/14 09:07:35;;;;;;;24.25;13.07;;;;;;;7.06;57.17;101046.28;5047583;28;20040;-21
2022/02/14 09:10:00;;;;;;;17.60;10.82;;;;;;;6.66;59.61;101024.22;5047474;28;20040;-20
2022/02/14 09:12:26;;;;;;;27.70;13.98;;;;;;;6.76;59.90;101040.75;5047471;28;20053;-21
2022/02/14 09:14:51;;;;;;;24.27;13.90;;;;;;;7.34;57.39;101043.19;5047370;28;20071;-21
2022/02/14 09:17:18;;;;;;;29.88;17.95;;;;;;;7.28;57.97;101052.66;5047864;28;20112;-20
2022/02/14 09:19:44;;;;;;;26.33;13.50;;;;;;;7.28;57.52;101054.50;5047610;28;20472;-20
2022/02/14 09:22:09;;;;;;;23.80;12.57;;;;;;;7.08;56.58;101046.94;5047346;28;20043;-20
2022/02/14 09:24:35;;;;;;;23.27;13.60;;;;;;;7.44;55.45;101027.88;5047270;28;20411;-21
2022/02/14 09:27:02;;;;;;;21.77;11.55;;;;;;;7.57;57.52;101045.88;5047316;28;20024;-20
2022/02/14 09:29:27;;;;;;;17.77;10.88;;;;;;;7.69;54.59;101043.66;5047354;28;20021;-21
2022/02/14 09:31:53;;;;;;;17.90;10.20;;;;;;;7.34;55.56;101053.81;5047512;28;20025;-20
2022/02/14 09:34:19;;;;;;;18.30;10.60;;;;;;;7.78;55.05;101045.25;5047420;28;20045;-20
2022/02/14 09:36:45;;;;;;;16.88;9.48;;;;;;;7.77;53.61;101044.41;5047124;28;20064;-22
2022/02/14 09:39:11;;;;;;;23.13;14.57;;;;;;;8.33;53.43;101038.00;5047988;28;20033;-22
2022/02/14 09:41:39;;;;;;;25.17;13.60;;;;;;;8.55;54.96;101046.97;5047042;28;20029;-21
2022/02/14 09:44:05;;;;;;;17.27;10.85;;;;;;;8.23;54.02;101033.78;5047359;28;20076;-20
2022/02/14 09:46:32;;;;;;;19.38;11.30;;;;;;;8.80;52.29;101031.56;5047359;28;20029;-21
2022/02/14 09:48:59;;;;;;;17.90;9.70;;;;;;;8.37;53.84;101031.31;5046875;28;20114;-20
2022/02/14 09:51:25;;;;;;;17.53;8.83;;;;;;;8.39;52.67;101027.47;5047796;28;20101;-20
2022/02/14 09:53:50;;;;;;;13.82;9.02;;;;;;;8.89;51.21;101016.34;5047305;28;20033;-21
2022/02/14 09:56:15;;;;;;;21.17;10.00;;;;;;;8.55;52.37;101010.56;5046947;28;20032;-21
2022/02/14 09:58:41;;;;;;;29.00;16.20;;;;;;;8.92;49.12;101016.00;5047218;28;20033;-28
2022/02/14 10:01:06;;;;;;;14.38;8.48;;;;;;;9.09;49.93;101001.47;5047271;28;20061;-21
2022/02/14 10:03:33;;;;;;;14.70;8.48;;;;;;;9.28;48.79;101002.72;5047053;28;20036;-20
2022/02/14 10:05:59;;;;;;;13.05;8.50;;;;;;;9.84;46.53;101004.72;5047171;28;20037;-20
2022/02/14 10:08:37;;;;;;;20.17;15.40;;;;;;;9.97;47.89;101004.84;5046993;28;20033;-22
2022/02/14 10:11:18;;;;;;;55.63;49.70;;;;;;;9.98;47.17;101005.69;5029451;28;20033;-20
2022/02/14 10:13:50;;;;;;;17.00;11.65;;;;;;;9.72;47.55;100971.63;5048920;28;20504;-21
2022/02/14 10:16:16;;;;;;;11.07;6.85;;;;;;;9.77;46.01;100970.03;5050698;28;20033;-21
2022/02/14 10:18:42;;;;;;;13.05;7.40;;;;;;;10.36;46.54;100987.56;5050573;28;20036;-20
2022/02/14 10:21:21;;;;;;;21.10;12.57;;;;;;;10.85;44.66;100983.13;5050784;28;20040;-20
2022/02/14 10:24:08;;;;;;;17.52;10.20;;;;;;;10.86;43.85;100977.56;5050829;28;20029;-20
2022/02/14 10:26:42;;;;;;;15.18;8.80;;;;;;;10.51;46.34;100967.97;5050284;28;20059;-20
2022/02/14 10:29:08;;;;;;;12.25;7.28;;;;;;;10.33;45.39;100963.94;5033385;28;20036;-20
2022/02/14 10:31:48;;;;;;;13.30;7.72;;;;;;;10.41;48.19;100953.13;5050323;28;20408;-20
2022/02/14 10:34:13;;;;;;;10.85;6.55;;;;;;;10.37;47.39;100962.53;5050665;28;20035;-20
2022/02/14 10:36:41;;;;;;;23.40;11.23;;;;;;;10.27;46.66;100936.19;5049990;28;20025;-20
2022/02/14 10:39:22;;;;;;;20.87;10.83;;;;;;;10.75;44.07;100953.31;5050331;28;20025;-21
2022/02/14 10:41:59;;;;;;;9.90;6.13;;;;;;;11.34;42.82;100935.84;5050197;28;20270;-20
2022/02/14 10:47:10;;;;;;;10.25;5.88;;;;;;;11.99;41.39;100939.63;5050303;28;20035;-20
2022/02/14 10:49:36;;;;;;;11.30;7.03;;;;;;;12.71;41.21;100937.00;5050235;28;20033;-20
2022/02/14 10:52:05;;;;;;;11.93;6.45;;;;;;;12.20;40.92;100914.50;5049968;28;20499;-20
2022/02/14 10:54:36;;;;;;;9.48;5.13;;;;;;;12.29;41.49;100919.63;5049618;28;20040;-20
2022/02/14 10:57:01;;;;;;;10.07;6.22;;;;;;;11.76;41.78;100899.09;5049995;28;20496;-20
2022/02/14 10:59:29;;;;;;;9.75;6.05;;;;;;;12.20;40.36;100914.50;5049705;28;20070;-22
2022/02/14 11:01:54;;;;;;;11.88;6.95;;;;;;;12.50;39.83;100918.53;5049662;28;20409;-20
2022/02/14 11:04:20;;;;;;;12.70;6.30;;;;;;;12.80;39.42;100914.31;5015393;28;20480;-20
2022/02/14 11:06:45;;;;;;;9.80;6.03;;;;;;;12.74;38.85;100912.47;5031534;28;20029;-20
2022/02/14 11:09:11;;;;;;;8.95;5.93;;;;;;;12.53;39.32;100902.91;5049551;28;20037;-20
2022/02/14 11:11:36;;;;;;;11.40;6.25;;;;;;;12.76;39.78;100905.06;5031713;28;20462;-20
2022/02/14 11:14:03;;;;;;;9.35;5.03;;;;;;;11.90;39.21;100895.41;5031911;28;20040;-21
2022/02/14 11:16:29;;;;;;;11.32;5.95;;;;;;;12.03;39.74;100892.75;5031411;28;20116;-20
2022/02/14 11:18:56;;;;;;;8.45;5.75;;;;;;;11.84;39.80;100890.88;5015205;28;20104;-20